• 1
  • 2
  • 1

WebCam

  
Kamera Halle
Kamera Vorfeld


AeroClub Göppingen-Salach e.V.
Ausrichter der Modellflug
GPS Triangle-WM 2020

Wetter EDDS

METAR

EDDS 131220Z 24008KT 200V290 9999 FEW030 08/M00 Q1004 NOSIG =
EDDS 131100Z 1312/1412 21005KT 9999 FEW030 BECMG 1323/1402 09003KT


TAF

EDDS 131100Z 1312/1412 21005KT 9999 FEW030 BECMG 1323/1402 09003KT =


SR/SS

06:26 / 15:45 UTC
(EDSO 13-11-2019)